createdAt,value
2019-03-29T00:00:23.565Z,102125.63
2019-03-29T00:02:54.642Z,102126.16
2019-03-29T00:05:24.275Z,102124.83
2019-03-29T00:07:53.903Z,102118.90
2019-03-29T00:10:23.557Z,102121.27
2019-03-29T00:12:53.263Z,102126.59
2019-03-29T00:15:22.790Z,102126.39
2019-03-29T00:17:52.414Z,102125.13
2019-03-29T00:20:22.040Z,102117.39
2019-03-29T00:22:52.797Z,102117.39
2019-03-29T00:25:22.425Z,102118.69
2019-03-29T00:27:52.058Z,102121.62
2019-03-29T00:30:22.124Z,102119.02
2019-03-29T00:32:51.919Z,102117.09
2019-03-29T00:35:21.657Z,102114.16
2019-03-29T00:37:53.818Z,102114.86
2019-03-29T00:40:22.750Z,102118.27
2019-03-29T00:42:52.276Z,102106.25
2019-03-29T00:45:21.894Z,102110.17
2019-03-29T00:47:51.635Z,102106.17
2019-03-29T00:50:21.256Z,102110.94
2019-03-29T00:52:50.888Z,102100.05
2019-03-29T00:55:20.955Z,102103.21
2019-03-29T00:57:50.755Z,102101.08
2019-03-29T01:00:20.382Z,102105.14
2019-03-29T01:02:49.911Z,102098.72
2019-03-29T01:05:20.225Z,102097.95
2019-03-29T01:07:50.704Z,102099.48
2019-03-29T01:10:20.348Z,102100.37
2019-03-29T01:12:50.054Z,102097.97
2019-03-29T01:15:19.571Z,102101.83
2019-03-29T01:17:49.337Z,102095.80
2019-03-29T01:20:18.942Z,102101.13
2019-03-29T01:22:48.585Z,102096.56
2019-03-29T01:25:18.299Z,102101.28
2019-03-29T01:27:47.819Z,102099.84
2019-03-29T01:30:17.346Z,102096.08
2019-03-29T01:32:46.980Z,102104.31
2019-03-29T01:35:16.707Z,102103.72
2019-03-29T01:37:47.462Z,102094.17
2019-03-29T01:40:17.086Z,102092.14
2019-03-29T01:42:46.717Z,102099.22
2019-03-29T01:45:16.344Z,102093.63
2019-03-29T01:47:45.869Z,102086.47
2019-03-29T01:50:15.497Z,102096.08
2019-03-29T01:52:45.862Z,102094.17
2019-03-29T01:55:15.567Z,102096.14
2019-03-29T01:57:45.304Z,102089.23
2019-03-29T02:00:18.207Z,102089.12
2019-03-29T02:02:47.836Z,102081.16
2019-03-29T02:05:17.460Z,102075.38
2019-03-29T02:07:47.184Z,102081.78
2019-03-29T02:10:16.914Z,102072.80
2019-03-29T02:12:46.643Z,102072.44
2019-03-29T02:15:16.275Z,102073.16
2019-03-29T02:17:45.805Z,102068.34
2019-03-29T02:20:15.325Z,102070.14
2019-03-29T02:22:44.958Z,102074.37
2019-03-29T02:25:15.324Z,102067.92
2019-03-29T02:27:45.846Z,102066.50
2019-03-29T02:30:15.382Z,102063.45
2019-03-29T02:32:45.002Z,102060.53
2019-03-29T02:35:14.736Z,102060.99
2019-03-29T02:37:44.357Z,102059.30
2019-03-29T02:40:13.988Z,102060.28
2019-03-29T02:42:43.622Z,102052.12
2019-03-29T02:45:13.249Z,102062.31
2019-03-29T02:47:42.733Z,102050.31
2019-03-29T02:50:12.243Z,102053.96
2019-03-29T02:52:41.927Z,102053.96
2019-03-29T02:55:11.446Z,102056.79
2019-03-29T02:57:41.085Z,102056.06
2019-03-29T03:00:10.810Z,102049.66
2019-03-29T03:02:40.391Z,102051.61
2019-03-29T03:05:10.467Z,102048.69
2019-03-29T03:07:41.117Z,102044.55
2019-03-29T03:10:11.377Z,102043.35
2019-03-29T03:12:41.093Z,102054.84
2019-03-29T03:15:10.702Z,102050.22
2019-03-29T03:17:41.488Z,102047.73
2019-03-29T03:20:15.399Z,102053.18
2019-03-29T03:22:45.540Z,102051.83
2019-03-29T03:25:15.168Z,102058.59
2019-03-29T03:27:44.788Z,102057.52
2019-03-29T03:30:14.335Z,102057.86
2019-03-29T03:32:43.885Z,102060.08
2019-03-29T03:35:13.481Z,102052.56
2019-03-29T03:37:43.002Z,102057.39
2019-03-29T03:40:12.515Z,102058.31
2019-03-29T03:42:42.059Z,102062.55
2019-03-29T03:45:11.672Z,102065.95
2019-03-29T03:47:41.231Z,102064.35
2019-03-29T03:50:25.978Z,102059.80
2019-03-29T03:52:55.493Z,102067.45
2019-03-29T03:55:25.026Z,102069.41
2019-03-29T03:57:57.752Z,102068.56
2019-03-29T04:00:45.543Z,102063.63
2019-03-29T04:03:15.067Z,102060.72
2019-03-29T04:05:44.599Z,102067.20
2019-03-29T04:08:14.119Z,102061.63
2019-03-29T04:10:43.677Z,102066.39
2019-03-29T04:13:13.377Z,102073.07
2019-03-29T04:15:43.111Z,102061.83
2019-03-29T04:18:15.712Z,102054.54
2019-03-29T04:20:43.900Z,102049.23
2019-03-29T04:23:13.432Z,102050.30
2019-03-29T04:25:42.978Z,102050.94
2019-03-29T04:28:12.480Z,102048.37
2019-03-29T04:30:42.109Z,102048.80
2019-03-29T04:33:11.661Z,102046.94
2019-03-29T04:35:41.251Z,102040.86
2019-03-29T04:38:10.885Z,102041.09
2019-03-29T04:40:40.515Z,102038.27
2019-03-29T04:43:10.138Z,102034.86
2019-03-29T04:45:39.763Z,102035.34
2019-03-29T04:48:09.294Z,102030.33
2019-03-29T04:50:39.025Z,102037.30
2019-03-29T04:53:08.651Z,102032.30
2019-03-29T04:55:38.374Z,102023.57
2019-03-29T04:58:07.914Z,102022.20
2019-03-29T05:00:37.526Z,102003.56
2019-03-29T05:03:07.158Z,102003.56
2019-03-29T05:05:36.894Z,102008.47
2019-03-29T05:08:06.723Z,102007.44
2019-03-29T05:10:36.347Z,102010.98
2019-03-29T05:13:06.999Z,102004.95
2019-03-29T05:15:36.634Z,102011.62
2019-03-29T05:18:06.260Z,102006.92
2019-03-29T05:20:35.940Z,102016.33
2019-03-29T05:23:05.497Z,102013.28
2019-03-29T05:25:35.145Z,102005.95
2019-03-29T05:28:04.873Z,102003.67
2019-03-29T05:30:34.607Z,102008.34
2019-03-29T05:33:04.229Z,102005.77
2019-03-29T05:35:33.702Z,102008.18
2019-03-29T05:38:03.286Z,102003.65
2019-03-29T05:40:35.212Z,102002.95
2019-03-29T05:43:04.172Z,102002.21
2019-03-29T05:45:33.726Z,102003.78
2019-03-29T05:48:03.330Z,102014.57
2019-03-29T05:50:33.155Z,102009.19
2019-03-29T05:53:02.680Z,102018.16
2019-03-29T05:55:33.083Z,102010.41
2019-03-29T05:58:03.878Z,102008.66
2019-03-29T06:00:33.510Z,102007.18
2019-03-29T06:03:03.431Z,102005.95
2019-03-29T06:05:33.178Z,102012.77
2019-03-29T06:08:02.807Z,102017.02
2019-03-29T06:10:32.437Z,102021.05
2019-03-29T06:13:02.263Z,102026.70
2019-03-29T06:15:31.995Z,102017.36
2019-03-29T06:18:01.565Z,102014.71
2019-03-29T06:20:31.168Z,102024.38
2019-03-29T06:23:00.733Z,102028.09
2019-03-29T06:25:30.865Z,102006.49
2019-03-29T06:28:00.328Z,102015.93
2019-03-29T06:30:30.383Z,102009.22
2019-03-29T06:33:00.100Z,102008.12
2019-03-29T06:35:34.551Z,102015.55
2019-03-29T06:38:04.480Z,102022.28
2019-03-29T06:40:35.236Z,102018.45
2019-03-29T06:43:04.861Z,102007.20
2019-03-29T06:45:47.341Z,102004.94
2019-03-29T06:48:06.055Z,102011.41
2019-03-29T06:50:35.722Z,102003.58
2019-03-29T06:53:05.520Z,102017.63
2019-03-29T06:55:35.248Z,102008.72
2019-03-29T06:58:04.876Z,102007.73
2019-03-29T07:00:34.413Z,101998.73
2019-03-29T07:03:04.126Z,102000.94
2019-03-29T07:05:33.766Z,102000.42
2019-03-29T07:08:03.795Z,101999.94
2019-03-29T07:10:33.530Z,101994.27
2019-03-29T07:13:03.051Z,102004.79
2019-03-29T07:15:32.632Z,101998.86
2019-03-29T07:18:02.318Z,101996.25
2019-03-29T07:20:32.036Z,101992.27
2019-03-29T07:23:01.763Z,101982.42
2019-03-29T07:25:31.461Z,101976.44
2019-03-29T07:28:01.229Z,101976.37
2019-03-29T07:30:30.863Z,101975.05
2019-03-29T07:33:00.477Z,101972.95
2019-03-29T07:35:30.223Z,101969.91
2019-03-29T07:38:00.048Z,101958.06
2019-03-29T07:40:29.772Z,101961.95
2019-03-29T07:42:59.401Z,101961.30
2019-03-29T07:45:29.034Z,101942.23
2019-03-29T07:47:58.555Z,101953.05
2019-03-29T07:50:28.182Z,101950.01
2019-03-29T07:52:57.751Z,101957.58
2019-03-29T07:55:27.431Z,101954.22
2019-03-29T07:57:57.169Z,101951.83
2019-03-29T08:00:27.818Z,101941.58
2019-03-29T08:02:57.349Z,101948.73
2019-03-29T08:05:28.105Z,101957.28
2019-03-29T08:07:57.764Z,101976.17
2019-03-29T08:10:31.008Z,101974.22
2019-03-29T08:12:59.781Z,101963.31
2019-03-29T08:15:29.378Z,101959.47
2019-03-29T08:18:01.583Z,101964.42
2019-03-29T08:20:42.000Z,101955.63
2019-03-29T08:23:01.933Z,101941.97
2019-03-29T08:25:31.567Z,101923.51
2019-03-29T08:28:01.294Z,101915.92
2019-03-29T08:30:31.029Z,101901.55
2019-03-29T08:33:00.757Z,101904.63
2019-03-29T08:35:30.378Z,101910.91
2019-03-29T08:38:00.011Z,101910.83
2019-03-29T08:40:29.740Z,101899.81
2019-03-29T08:43:00.495Z,101904.58
2019-03-29T08:45:30.120Z,101898.20
2019-03-29T08:47:59.849Z,101901.18
2019-03-29T08:50:29.485Z,101880.86
2019-03-29T08:52:59.210Z,101891.48
2019-03-29T08:55:28.726Z,101883.38
2019-03-29T08:57:58.360Z,101885.13
2019-03-29T09:00:31.812Z,101878.61
2019-03-29T09:03:01.549Z,101880.78
2019-03-29T09:05:32.366Z,101871.23
2019-03-29T09:08:01.982Z,101869.12
2019-03-29T09:10:32.743Z,101859.69
2019-03-29T09:13:04.495Z,101856.14
2019-03-29T09:15:33.636Z,101850.89
2019-03-29T09:18:03.360Z,101845.76
2019-03-29T09:20:34.598Z,101847.58
2019-03-29T09:23:04.592Z,101838.80
2019-03-29T09:25:34.190Z,101840.84
2019-03-29T09:28:03.830Z,101830.73
2019-03-29T09:30:33.510Z,101820.77
2019-03-29T09:33:03.795Z,101818.89
2019-03-29T09:35:33.524Z,101813.62
2019-03-29T09:38:03.147Z,101802.64
2019-03-29T09:40:32.876Z,101804.14
2019-03-29T09:43:09.605Z,101796.17
2019-03-29T09:45:33.813Z,101793.59
2019-03-29T09:48:03.395Z,101804.30
2019-03-29T09:50:32.986Z,101845.02
2019-03-29T09:53:03.574Z,101835.59
2019-03-29T09:55:33.105Z,101845.69
2019-03-29T09:58:02.657Z,101834.78
2019-03-29T10:00:32.349Z,101818.45
2019-03-29T10:03:01.830Z,101823.99
2019-03-29T10:05:31.763Z,101799.95
2019-03-29T10:08:01.550Z,101805.02
2019-03-29T10:10:34.392Z,101793.86
2019-03-29T10:13:02.535Z,101778.84
2019-03-29T10:15:32.266Z,101767.00
2019-03-29T10:18:01.903Z,101770.23
2019-03-29T10:20:31.533Z,101762.09
2019-03-29T10:23:01.371Z,101762.94
2019-03-29T10:25:31.087Z,101761.71
2019-03-29T10:28:00.923Z,101765.81
2019-03-29T10:30:41.804Z,101766.49
2019-03-29T10:33:11.532Z,101763.62
2019-03-29T10:35:51.581Z,101766.13
2019-03-29T10:38:12.629Z,101758.84
2019-03-29T10:40:42.255Z,101750.09
2019-03-29T10:43:11.782Z,101741.39
2019-03-29T10:45:41.415Z,101746.14
2019-03-29T10:48:10.934Z,101728.56
2019-03-29T10:50:40.565Z,101734.96
2019-03-29T10:53:11.134Z,101725.97
2019-03-29T10:55:40.843Z,101723.50
2019-03-29T10:58:10.501Z,101733.22
2019-03-29T11:00:40.607Z,101746.01
2019-03-29T11:03:10.247Z,101738.65
2019-03-29T11:05:39.768Z,101727.39
2019-03-29T11:08:11.793Z,101701.16
2019-03-29T11:10:40.713Z,101713.68
2019-03-29T11:13:13.569Z,101702.52
2019-03-29T11:15:41.748Z,101688.42
2019-03-29T11:18:11.355Z,101684.01
2019-03-29T11:20:40.919Z,101696.98
2019-03-29T11:23:10.409Z,101728.89
2019-03-29T11:25:40.069Z,101717.98
2019-03-29T11:28:09.640Z,101713.16
2019-03-29T11:30:42.645Z,101705.59
2019-03-29T11:33:10.679Z,101674.41
2019-03-29T11:35:40.213Z,101705.27
2019-03-29T11:38:09.928Z,101690.07
2019-03-29T11:40:39.672Z,101676.36
2019-03-29T11:43:09.387Z,101667.46
2019-03-29T11:45:38.920Z,101656.58
2019-03-29T11:48:09.663Z,101667.75
2019-03-29T11:50:39.414Z,101649.20
2019-03-29T11:53:09.141Z,101645.12
2019-03-29T11:55:38.759Z,101641.47
2019-03-29T11:58:08.387Z,101645.72
2019-03-29T12:00:38.224Z,101621.88
2019-03-29T12:03:09.363Z,101629.55
2019-03-29T12:05:40.349Z,101631.64
2019-03-29T12:08:09.929Z,101629.98
2019-03-29T12:10:39.552Z,101634.13
2019-03-29T12:13:09.224Z,101620.34
2019-03-29T12:15:39.158Z,101609.35
2019-03-29T12:18:08.789Z,101603.98
2019-03-29T12:20:38.615Z,101601.74
2019-03-29T12:23:08.463Z,101604.91
2019-03-29T12:25:38.097Z,101599.14
2019-03-29T12:28:07.703Z,101601.00
2019-03-29T12:30:37.347Z,101608.56
2019-03-29T12:33:07.082Z,101599.03
2019-03-29T12:35:36.803Z,101593.56
2019-03-29T12:38:06.417Z,101589.63
2019-03-29T12:40:36.145Z,101602.94
2019-03-29T12:43:05.884Z,101595.02
2019-03-29T12:45:35.960Z,101586.23
2019-03-29T12:48:05.764Z,101587.73
2019-03-29T12:50:35.481Z,101562.78
2019-03-29T12:53:05.021Z,101555.42
2019-03-29T12:55:34.638Z,101564.02
2019-03-29T12:58:05.285Z,101553.80
2019-03-29T13:00:35.017Z,101557.95
2019-03-29T13:03:04.646Z,101560.21
2019-03-29T13:05:34.272Z,101555.14
2019-03-29T13:08:03.903Z,101538.72
2019-03-29T13:10:33.625Z,101533.38
2019-03-29T13:13:03.255Z,101523.30
2019-03-29T13:15:32.886Z,101513.73
2019-03-29T13:18:02.407Z,101503.33
2019-03-29T13:20:33.055Z,101492.95
2019-03-29T13:23:02.806Z,101492.42
2019-03-29T13:25:32.421Z,101493.23
2019-03-29T13:28:02.045Z,101487.11
2019-03-29T13:30:31.782Z,101481.92
2019-03-29T13:33:01.507Z,101495.84
2019-03-29T13:35:31.320Z,101467.53
2019-03-29T13:38:00.869Z,101472.67
2019-03-29T13:40:31.523Z,101460.10
2019-03-29T13:43:01.253Z,101458.77
2019-03-29T13:45:30.871Z,101463.45
2019-03-29T13:48:00.292Z,101465.98
2019-03-29T13:50:29.929Z,101452.70
2019-03-29T13:52:59.451Z,101454.98
2019-03-29T13:55:28.980Z,101459.78
2019-03-29T13:57:58.608Z,101463.82
2019-03-29T14:00:28.336Z,101456.38
2019-03-29T14:02:57.968Z,101461.04
2019-03-29T14:05:27.603Z,101444.23
2019-03-29T14:07:57.217Z,101444.23
2019-03-29T14:10:26.853Z,101459.23
2019-03-29T14:12:56.577Z,101464.07
2019-03-29T14:15:26.389Z,101457.84
2019-03-29T14:17:56.142Z,101460.98
2019-03-29T14:20:33.135Z,101459.39
2019-03-29T14:23:03.269Z,101454.23
2019-03-29T14:25:33.000Z,101458.81
2019-03-29T14:28:02.627Z,101451.45
2019-03-29T14:30:32.259Z,101462.62
2019-03-29T14:33:01.894Z,101449.42
2019-03-29T14:35:31.721Z,101441.43
2019-03-29T14:38:01.443Z,101438.73
2019-03-29T14:40:31.079Z,101445.78
2019-03-29T14:43:00.865Z,101453.98
2019-03-29T14:45:30.552Z,101454.75
2019-03-29T14:48:00.375Z,101445.36
2019-03-29T14:50:29.990Z,101457.51
2019-03-29T14:52:59.633Z,101456.73
2019-03-29T14:55:29.259Z,101472.11
2019-03-29T14:57:58.986Z,101457.18
2019-03-29T15:00:39.399Z,101468.75
2019-03-29T15:03:09.082Z,101468.20
2019-03-29T15:05:38.711Z,101468.36
2019-03-29T15:08:08.337Z,101467.47
2019-03-29T15:10:37.944Z,101474.39
2019-03-29T15:13:07.488Z,101470.52
2019-03-29T15:15:37.227Z,101459.83
2019-03-29T15:18:06.854Z,101465.73
2019-03-29T15:20:36.374Z,101451.97
2019-03-29T15:23:06.109Z,101449.63
2019-03-29T15:25:35.748Z,101465.93
2019-03-29T15:28:05.360Z,101465.84
2019-03-29T15:30:35.000Z,101474.80
2019-03-29T15:33:06.355Z,101468.16
2019-03-29T15:35:35.982Z,101459.63
2019-03-29T15:38:05.714Z,101459.66
2019-03-29T15:40:36.480Z,101453.57
2019-03-29T15:43:39.436Z,101464.08
2019-03-29T15:49:28.198Z,101454.28
2019-03-29T15:55:16.744Z,101456.19
2019-03-29T16:04:39.760Z,101437.06
2019-03-29T16:10:27.474Z,101443.76
2019-03-29T16:16:15.542Z,101440.86
2019-03-29T16:22:06.056Z,101447.41
2019-03-29T16:27:53.768Z,101438.59
2019-03-29T16:33:41.999Z,101443.68
2019-03-29T16:39:19.629Z,101447.02
2019-03-29T16:45:08.176Z,101438.77
2019-03-29T16:50:51.002Z,101448.22
2019-03-29T16:56:39.243Z,101455.05
2019-03-29T17:06:02.578Z,101471.66
2019-03-29T17:12:02.883Z,101462.68
2019-03-29T17:18:03.205Z,101465.85
2019-03-29T17:24:03.306Z,101472.02
2019-03-29T17:30:04.168Z,101474.48
2019-03-29T17:36:04.054Z,101468.26
2019-03-29T17:42:04.036Z,101468.05
2019-03-29T17:48:05.018Z,101476.80
2019-03-29T17:54:05.011Z,101475.59
2019-03-29T18:00:07.988Z,101469.83
2019-03-29T18:09:20.865Z,101466.61
2019-03-29T18:14:57.948Z,101471.83
2019-03-29T18:20:48.134Z,101474.83
2019-03-29T18:26:36.298Z,101464.08
2019-03-29T18:32:17.195Z,101467.50
2019-03-29T18:38:06.550Z,101469.03
2019-03-29T18:43:54.884Z,101457.07
2019-03-29T18:49:43.536Z,101459.97
2019-03-29T18:55:31.676Z,101461.66
2019-03-29T19:01:20.450Z,101461.80
2019-03-29T19:10:40.111Z,101442.93
2019-03-29T19:16:41.015Z,101433.14
2019-03-29T19:22:41.151Z,101438.23
2019-03-29T19:28:40.950Z,101437.84
2019-03-29T19:34:41.448Z,101440.83
2019-03-29T19:40:41.550Z,101447.86
2019-03-29T19:46:43.918Z,101443.94
2019-03-29T19:52:43.921Z,101436.05
2019-03-29T19:58:44.058Z,101427.80
2019-03-29T20:04:44.552Z,101423.06
2019-03-29T20:13:59.956Z,101407.82
2019-03-29T20:19:37.607Z,101406.83
2019-03-29T20:25:26.668Z,101417.11
2019-03-29T20:31:14.810Z,101407.91
2019-03-29T20:37:02.450Z,101387.77
2019-03-29T20:42:50.208Z,101397.11
2019-03-29T20:48:38.627Z,101389.56
2019-03-29T20:54:27.589Z,101381.51
2019-03-29T21:00:16.321Z,101377.98
2019-03-29T21:06:04.693Z,101371.23
2019-03-29T21:15:17.286Z,101378.87
2019-03-29T21:21:17.090Z,101377.25
2019-03-29T21:27:17.309Z,101379.70
2019-03-29T21:33:17.710Z,101379.23
2019-03-29T21:39:18.328Z,101390.02
2019-03-29T21:45:29.122Z,101394.19
2019-03-29T21:51:27.988Z,101394.66
2019-03-29T21:57:28.173Z,101379.75
2019-03-29T22:03:28.309Z,101381.95
2019-03-29T22:09:36.783Z,101378.94
2019-03-29T22:18:38.933Z,101378.83
2019-03-29T22:24:17.261Z,101360.17
2019-03-29T22:30:08.365Z,101362.34
2019-03-29T22:35:55.990Z,101353.45
2019-03-29T22:41:44.656Z,101363.69
2019-03-29T22:47:32.487Z,101365.89
2019-03-29T22:53:20.950Z,101362.55
2019-03-29T22:59:09.805Z,101344.86
2019-03-29T23:04:59.064Z,101352.14
2019-03-29T23:10:47.613Z,101351.44
2019-03-29T23:19:54.581Z,101343.20
2019-03-29T23:25:57.571Z,101339.84
2019-03-29T23:31:57.289Z,101328.11
2019-03-29T23:37:58.079Z,101320.88
2019-03-29T23:43:59.830Z,101322.34
2019-03-29T23:49:53.391Z,101315.24
2019-03-29T23:55:55.958Z,101318.97
